createdAt,value
2023-10-12T00:02:28.969Z,53.33
2023-10-12T00:05:08.110Z,53.36
2023-10-12T00:07:37.034Z,53.47
2023-10-12T00:10:24.948Z,53.61
2023-10-12T00:13:01.325Z,53.96
2023-10-12T00:15:39.204Z,54.08
2023-10-12T00:18:10.539Z,54.24
2023-10-12T00:20:39.594Z,54.41
2023-10-12T00:23:12.612Z,54.41
2023-10-12T00:25:50.606Z,54.21
2023-10-12T00:28:21.416Z,54.63
2023-10-12T00:30:56.939Z,54.75
2023-10-12T00:33:26.008Z,55.09
2023-10-12T00:36:21.663Z,55.36
2023-10-12T00:38:50.687Z,55.38
2023-10-12T00:41:19.442Z,55.39
2023-10-12T00:44:21.475Z,55.60
2023-10-12T00:46:58.737Z,55.84
2023-10-12T00:49:31.312Z,55.77
2023-10-12T00:52:10.575Z,56.00
2023-10-12T00:54:38.940Z,56.29
2023-10-12T00:57:07.350Z,56.38
2023-10-12T00:59:36.160Z,56.48
2023-10-12T01:02:10.216Z,56.55
2023-10-12T01:04:39.621Z,56.54
2023-10-12T01:07:12.932Z,56.64
2023-10-12T01:09:41.237Z,56.80
2023-10-12T01:12:15.536Z,56.95
2023-10-12T01:14:48.724Z,57.04
2023-10-12T01:17:25.602Z,56.98
2023-10-12T01:19:54.128Z,57.40
2023-10-12T01:22:30.051Z,57.37
2023-10-12T01:24:58.457Z,57.36
2023-10-12T01:27:27.222Z,57.44
2023-10-12T01:30:15.402Z,58.00
2023-10-12T01:32:43.841Z,57.69
2023-10-12T01:35:15.790Z,57.96
2023-10-12T01:37:49.280Z,58.06
2023-10-12T01:40:20.330Z,58.21
2023-10-12T01:42:48.500Z,58.47
2023-10-12T01:45:27.100Z,58.51
2023-10-12T01:48:09.309Z,58.73
2023-10-12T01:50:39.570Z,58.95
2023-10-12T01:53:23.855Z,58.99
2023-10-12T01:55:53.531Z,59.38
2023-10-12T01:58:29.428Z,59.27
2023-10-12T02:01:07.076Z,59.54
2023-10-12T02:03:44.494Z,59.75
2023-10-12T02:06:15.897Z,59.98
2023-10-12T02:08:47.645Z,60.09
2023-10-12T02:11:18.934Z,60.45
2023-10-12T02:13:52.445Z,60.81
2023-10-12T02:16:39.773Z,60.91
2023-10-12T02:19:09.519Z,61.47
2023-10-12T02:21:42.684Z,61.35
2023-10-12T02:24:10.738Z,61.42
2023-10-12T02:26:40.139Z,61.69
2023-10-12T02:29:09.622Z,61.64
2023-10-12T02:31:55.657Z,62.23
2023-10-12T02:34:31.294Z,62.43
2023-10-12T02:37:13.455Z,62.50
2023-10-12T02:39:43.211Z,62.44
2023-10-12T02:42:18.882Z,62.96
2023-10-12T02:44:55.378Z,62.98
2023-10-12T02:47:31.547Z,63.25
2023-10-12T02:50:09.634Z,63.32
2023-10-12T02:52:38.345Z,63.49
2023-10-12T02:55:19.901Z,63.94
2023-10-12T02:58:17.145Z,63.95
2023-10-12T03:00:48.253Z,64.23
2023-10-12T03:03:35.274Z,64.16
2023-10-12T03:06:08.977Z,64.68
2023-10-12T03:08:56.040Z,64.59
2023-10-12T03:11:27.263Z,64.59
2023-10-12T03:14:14.848Z,64.76
2023-10-12T03:16:43.858Z,64.89
2023-10-12T03:19:27.689Z,65.11
2023-10-12T03:22:05.599Z,65.23
2023-10-12T03:24:46.214Z,65.04
2023-10-12T03:27:15.297Z,65.29
2023-10-12T03:29:47.534Z,65.53
2023-10-12T03:32:24.157Z,65.49
2023-10-12T03:34:55.133Z,65.68
2023-10-12T03:37:43.231Z,65.93
2023-10-12T03:40:29.915Z,65.97
2023-10-12T03:42:58.129Z,66.22
2023-10-12T03:45:29.108Z,66.07
2023-10-12T03:48:16.833Z,65.95
2023-10-12T03:50:55.320Z,66.16
2023-10-12T03:53:28.707Z,66.48
2023-10-12T03:56:02.555Z,66.53
2023-10-12T03:58:31.043Z,66.64
2023-10-12T04:01:31.456Z,66.71
2023-10-12T04:04:18.212Z,67.12
2023-10-12T04:07:02.133Z,66.72
2023-10-12T04:09:33.614Z,67.58
2023-10-12T04:12:34.770Z,67.18
2023-10-12T04:15:08.109Z,67.87
2023-10-12T04:17:42.954Z,67.09
2023-10-12T04:20:16.918Z,67.92
2023-10-12T04:22:44.809Z,68.02
2023-10-12T04:25:34.139Z,68.12
2023-10-12T04:28:18.418Z,68.25
2023-10-12T04:31:13.290Z,68.05
2023-10-12T04:34:00.109Z,68.55
2023-10-12T04:36:43.245Z,68.43
2023-10-12T04:39:12.139Z,68.57
2023-10-12T04:41:43.292Z,68.72
2023-10-12T04:44:26.536Z,68.74
2023-10-12T04:47:01.475Z,68.92
2023-10-12T04:49:39.713Z,69.09
2023-10-12T04:52:07.826Z,69.10
2023-10-12T04:54:51.187Z,69.10
2023-10-12T04:57:26.105Z,69.18
2023-10-12T05:00:16.145Z,69.41
2023-10-12T05:02:56.372Z,69.29
2023-10-12T05:05:24.944Z,69.32
2023-10-12T05:07:55.920Z,69.03
2023-10-12T05:10:37.824Z,68.98
2023-10-12T05:13:07.470Z,68.85
2023-10-12T05:15:56.191Z,68.98
2023-10-12T05:18:26.199Z,68.86
2023-10-12T05:20:54.241Z,68.84
2023-10-12T05:23:23.154Z,68.75
2023-10-12T05:25:54.356Z,68.81
2023-10-12T05:28:32.188Z,68.80
2023-10-12T05:31:09.849Z,68.76
2023-10-12T05:33:38.715Z,68.91
2023-10-12T05:36:10.814Z,69.02
2023-10-12T05:39:00.839Z,69.16
2023-10-12T05:41:34.606Z,69.29
2023-10-12T05:44:04.877Z,69.30
2023-10-12T05:46:36.178Z,69.61
2023-10-12T05:49:13.432Z,69.40
2023-10-12T05:51:46.399Z,69.48
2023-10-12T05:54:22.105Z,69.39
2023-10-12T05:56:56.458Z,69.38
2023-10-12T05:59:26.193Z,69.43
2023-10-12T06:01:54.253Z,69.38
2023-10-12T06:04:23.509Z,69.48
2023-10-12T06:06:54.279Z,69.34
2023-10-12T06:09:22.934Z,69.16
2023-10-12T06:11:53.094Z,69.40
2023-10-12T06:14:26.952Z,69.13
2023-10-12T06:17:04.322Z,69.29
2023-10-12T06:19:38.425Z,69.27
2023-10-12T06:22:24.979Z,69.03
2023-10-12T06:24:56.251Z,69.13
2023-10-12T06:27:24.970Z,69.04
2023-10-12T06:29:54.861Z,68.56
2023-10-12T06:32:41.947Z,69.02
2023-10-12T06:35:10.245Z,69.11
2023-10-12T06:37:53.473Z,69.53
2023-10-12T06:40:27.856Z,69.25
2023-10-12T06:43:12.665Z,69.10
2023-10-12T06:45:51.867Z,68.77
2023-10-12T06:48:42.028Z,68.69
2023-10-12T06:51:15.197Z,68.01
2023-10-12T06:53:46.083Z,67.77
2023-10-12T06:56:17.742Z,67.42
2023-10-12T06:59:11.721Z,67.05
2023-10-12T07:01:52.806Z,66.72
2023-10-12T07:04:27.609Z,66.69
2023-10-12T07:06:58.922Z,66.15
2023-10-12T07:09:48.273Z,66.13
2023-10-12T07:12:19.710Z,66.23
2023-10-12T07:14:48.431Z,65.62
2023-10-12T07:17:16.809Z,65.67
2023-10-12T07:19:57.106Z,64.99
2023-10-12T07:22:25.008Z,64.63
2023-10-12T07:24:58.756Z,64.46
2023-10-12T07:27:27.946Z,64.30
2023-10-12T07:30:23.245Z,63.71
2023-10-12T07:32:57.468Z,63.44
2023-10-12T07:35:37.807Z,63.31
2023-10-12T07:38:36.488Z,63.30
2023-10-12T07:41:07.405Z,63.10
2023-10-12T07:43:39.789Z,62.79
2023-10-12T07:46:26.933Z,62.36
2023-10-12T07:49:11.867Z,61.93
2023-10-12T07:52:00.173Z,61.51
2023-10-12T07:54:47.097Z,61.38
2023-10-12T07:57:21.820Z,61.28
2023-10-12T07:59:56.138Z,61.31
2023-10-12T08:02:53.820Z,60.59
2023-10-12T08:05:25.197Z,60.83
2023-10-12T08:08:02.702Z,60.23
2023-10-12T08:10:40.332Z,60.28
2023-10-12T08:13:27.871Z,59.76
2023-10-12T08:15:58.026Z,59.91
2023-10-12T08:18:47.311Z,59.89
2023-10-12T08:21:25.477Z,59.27
2023-10-12T08:23:59.855Z,58.94
2023-10-12T08:26:37.078Z,59.05
2023-10-12T08:29:10.781Z,58.44
2023-10-12T08:31:45.279Z,58.20
2023-10-12T08:34:35.982Z,57.95
2023-10-12T08:37:09.161Z,57.35
2023-10-12T08:39:47.119Z,57.28
2023-10-12T08:42:25.901Z,56.80
2023-10-12T08:45:00.877Z,57.11
2023-10-12T08:47:34.702Z,57.06
2023-10-12T08:50:09.841Z,57.38
2023-10-12T08:52:40.604Z,57.23
2023-10-12T08:55:15.631Z,57.67
2023-10-12T08:58:05.069Z,57.70
2023-10-12T09:00:37.468Z,57.09
2023-10-12T09:03:18.607Z,57.35
2023-10-12T09:05:53.242Z,57.08
2023-10-12T09:08:21.401Z,56.75
2023-10-12T09:11:04.776Z,56.77
2023-10-12T09:13:39.099Z,56.16
2023-10-12T09:16:11.923Z,55.82
2023-10-12T09:18:48.474Z,55.50
2023-10-12T09:21:23.437Z,55.70
2023-10-12T09:24:12.990Z,55.66
2023-10-12T09:26:48.910Z,55.72
2023-10-12T09:29:23.250Z,55.80
2023-10-12T09:32:14.462Z,55.75
2023-10-12T09:34:45.322Z,55.70
2023-10-12T09:37:18.007Z,55.39
2023-10-12T09:39:47.091Z,55.39
2023-10-12T09:42:46.252Z,54.95
2023-10-12T09:45:29.519Z,55.01
2023-10-12T09:48:06.972Z,54.59
2023-10-12T09:50:35.950Z,54.35
2023-10-12T09:53:23.230Z,54.32
2023-10-12T09:56:13.653Z,54.32
2023-10-12T09:59:05.013Z,54.32
2023-10-12T10:01:39.136Z,54.68
2023-10-12T10:04:26.768Z,54.75
2023-10-12T10:07:20.214Z,54.50
2023-10-12T10:09:50.804Z,54.60
2023-10-12T10:12:19.778Z,54.47
2023-10-12T10:14:49.070Z,55.05
2023-10-12T10:17:25.919Z,55.45
2023-10-12T10:20:25.534Z,55.25
2023-10-12T10:23:04.398Z,55.36
2023-10-12T10:25:47.432Z,54.79
2023-10-12T10:28:25.420Z,54.69
2023-10-12T10:31:01.293Z,54.73
2023-10-12T10:33:30.597Z,54.75
2023-10-12T10:36:03.136Z,54.68
2023-10-12T10:38:34.054Z,54.17
2023-10-12T10:41:09.344Z,54.03
2023-10-12T10:43:41.104Z,54.08
2023-10-12T10:46:12.537Z,54.61
2023-10-12T10:51:12.880Z,53.78
2023-10-12T10:53:40.953Z,54.06
2023-10-12T10:56:17.880Z,53.69
2023-10-12T10:58:47.812Z,53.34
2023-10-12T11:01:16.492Z,53.34
2023-10-12T11:03:48.039Z,53.57
2023-10-12T11:06:25.667Z,53.63
2023-10-12T11:09:14.119Z,53.86
2023-10-12T11:11:50.942Z,53.47
2023-10-12T11:14:23.703Z,53.63
2023-10-12T11:16:52.772Z,53.46
2023-10-12T11:19:22.984Z,53.52
2023-10-12T11:21:54.366Z,53.24
2023-10-12T11:24:25.604Z,53.33
2023-10-12T11:26:56.189Z,53.29
2023-10-12T11:29:27.702Z,53.15
2023-10-12T11:32:10.481Z,53.08
2023-10-12T11:34:46.439Z,52.76
2023-10-12T11:37:15.933Z,52.27
2023-10-12T11:39:48.145Z,51.83
2023-10-12T11:42:16.435Z,51.89
2023-10-12T11:44:48.629Z,51.68
2023-10-12T11:47:26.091Z,51.93
2023-10-12T11:49:58.440Z,51.84
2023-10-12T11:52:36.052Z,51.73
2023-10-12T11:55:21.767Z,51.67
2023-10-12T11:57:56.777Z,51.50
2023-10-12T12:00:32.762Z,51.76
2023-10-12T12:03:04.616Z,51.78
2023-10-12T12:05:33.827Z,51.55
2023-10-12T12:08:07.882Z,51.75
2023-10-12T12:10:55.700Z,51.83
2023-10-12T12:13:24.989Z,51.95
2023-10-12T12:15:57.401Z,52.30
2023-10-12T12:18:25.828Z,52.20
2023-10-12T12:20:58.198Z,51.93
2023-10-12T12:23:29.658Z,51.78
2023-10-12T12:26:09.556Z,51.49
2023-10-12T12:28:44.869Z,51.80
2023-10-12T12:31:16.933Z,51.74
2023-10-12T12:33:45.989Z,51.91
2023-10-12T12:36:14.699Z,51.21
2023-10-12T12:38:42.779Z,50.26
2023-10-12T12:41:20.084Z,50.14
2023-10-12T12:43:48.927Z,49.91
2023-10-12T12:46:20.947Z,50.20
2023-10-12T12:48:52.397Z,49.94
2023-10-12T12:51:20.624Z,49.85
2023-10-12T12:53:51.745Z,49.75
2023-10-12T12:56:23.544Z,49.62
2023-10-12T12:58:53.528Z,49.64
2023-10-12T13:01:26.050Z,49.55
2023-10-12T13:03:57.160Z,49.82
2023-10-12T13:06:26.631Z,50.06
2023-10-12T13:08:54.593Z,50.03
2023-10-12T13:11:23.055Z,50.07
2023-10-12T13:13:51.148Z,49.73
2023-10-12T13:16:19.831Z,50.04
2023-10-12T13:18:49.132Z,49.76
2023-10-12T13:21:18.416Z,49.93
2023-10-12T13:23:47.166Z,49.88
2023-10-12T13:26:19.197Z,49.80
2023-10-12T13:28:47.635Z,49.73
2023-10-12T13:31:16.215Z,50.36
2023-10-12T13:33:45.070Z,50.29
2023-10-12T13:36:13.804Z,50.22
2023-10-12T13:38:43.785Z,50.48
2023-10-12T13:41:13.251Z,51.12
2023-10-12T13:43:41.626Z,50.62
2023-10-12T13:46:10.598Z,50.92
2023-10-12T13:48:40.039Z,51.39
2023-10-12T13:51:25.987Z,51.07
2023-10-12T13:53:54.947Z,51.15
2023-10-12T13:56:26.004Z,51.10
2023-10-12T13:59:00.082Z,51.26
2023-10-12T14:01:35.121Z,51.42
2023-10-12T14:04:24.573Z,51.31
2023-10-12T14:06:54.826Z,51.67
2023-10-12T14:09:29.367Z,51.80
2023-10-12T14:11:57.657Z,51.81
2023-10-12T14:14:26.078Z,52.16
2023-10-12T14:16:54.300Z,52.59
2023-10-12T14:19:27.534Z,52.77
2023-10-12T14:21:56.191Z,53.17
2023-10-12T14:24:25.614Z,53.36
2023-10-12T14:26:57.064Z,53.66
2023-10-12T14:29:26.991Z,53.98
2023-10-12T14:31:55.936Z,54.13
2023-10-12T14:34:24.363Z,54.13
2023-10-12T14:36:52.496Z,54.14
2023-10-12T14:39:31.498Z,54.58
2023-10-12T14:41:59.693Z,54.43
2023-10-12T14:44:29.178Z,54.93
2023-10-12T14:46:59.992Z,55.29
2023-10-12T14:49:28.458Z,55.45
2023-10-12T14:51:56.834Z,55.16
2023-10-12T14:54:24.811Z,55.40
2023-10-12T14:56:55.295Z,55.48
2023-10-12T14:59:23.402Z,55.89
2023-10-12T15:01:53.232Z,55.72
2023-10-12T15:04:22.230Z,56.00
2023-10-12T15:06:50.976Z,56.17
2023-10-12T15:09:25.622Z,56.24
2023-10-12T15:11:53.939Z,56.38
2023-10-12T15:14:22.003Z,56.24
2023-10-12T15:16:51.729Z,56.59
2023-10-12T15:19:21.105Z,56.61
2023-10-12T15:21:50.765Z,56.88
2023-10-12T15:24:18.884Z,56.86
2023-10-12T15:26:47.100Z,56.92
2023-10-12T15:29:16.444Z,57.31
2023-10-12T15:31:44.390Z,57.19
2023-10-12T15:34:14.918Z,57.36
2023-10-12T15:36:46.354Z,57.54
2023-10-12T15:39:17.758Z,57.68
2023-10-12T15:41:45.857Z,57.83
2023-10-12T15:44:14.061Z,57.94
2023-10-12T15:46:42.122Z,57.94
2023-10-12T15:49:10.649Z,58.16
2023-10-12T15:51:38.842Z,58.41
2023-10-12T15:54:07.567Z,58.58
2023-10-12T15:56:35.947Z,58.78
2023-10-12T15:59:05.594Z,58.89
2023-10-12T16:01:33.826Z,59.00
2023-10-12T16:04:04.599Z,59.42
2023-10-12T16:06:35.792Z,59.21
2023-10-12T16:09:06.516Z,59.81
2023-10-12T16:11:40.075Z,59.86
2023-10-12T16:14:08.332Z,60.10
2023-10-12T16:16:37.537Z,60.46
2023-10-12T16:19:06.694Z,60.61
2023-10-12T16:21:35.440Z,60.34
2023-10-12T16:24:06.389Z,60.52
2023-10-12T16:26:35.941Z,60.86
2023-10-12T16:29:05.985Z,61.06
2023-10-12T16:31:38.903Z,61.19
2023-10-12T16:34:10.000Z,60.99
2023-10-12T16:36:38.241Z,61.16
2023-10-12T16:39:08.288Z,60.91
2023-10-12T16:41:36.568Z,61.39
2023-10-12T16:44:04.828Z,61.72
2023-10-12T16:46:33.910Z,61.39
2023-10-12T16:49:02.644Z,61.55
2023-10-12T16:51:30.938Z,61.71
2023-10-12T16:53:59.230Z,61.66
2023-10-12T16:56:28.483Z,62.25
2023-10-12T16:58:56.614Z,62.31
2023-10-12T17:01:25.727Z,62.51
2023-10-12T17:03:54.308Z,62.61
2023-10-12T17:06:22.632Z,62.14
2023-10-12T17:08:51.625Z,62.68
2023-10-12T17:11:19.794Z,62.88
2023-10-12T17:13:47.940Z,63.18
2023-10-12T17:16:16.347Z,63.23
2023-10-12T17:18:47.466Z,62.92
2023-10-12T17:21:15.641Z,63.35
2023-10-12T17:23:47.012Z,63.57
2023-10-12T17:26:15.239Z,63.79
2023-10-12T17:28:43.333Z,64.07
2023-10-12T17:31:11.649Z,64.25
2023-10-12T17:33:40.375Z,64.70
2023-10-12T17:36:12.714Z,64.40
2023-10-12T17:38:41.041Z,64.53
2023-10-12T17:41:10.718Z,64.38
2023-10-12T17:43:42.431Z,65.02
2023-10-12T17:46:11.876Z,64.72
2023-10-12T17:48:40.880Z,64.58
2023-10-12T17:51:19.400Z,65.16
2023-10-12T17:53:49.743Z,65.04
2023-10-12T17:56:18.733Z,64.81
2023-10-12T17:58:47.029Z,65.49
2023-10-12T18:01:16.015Z,65.19
2023-10-12T18:03:44.521Z,65.42
2023-10-12T18:06:13.466Z,65.44
2023-10-12T18:08:42.110Z,65.79
2023-10-12T18:11:12.026Z,65.42
2023-10-12T18:13:41.172Z,65.93
2023-10-12T18:16:12.085Z,66.24
2023-10-12T18:18:40.554Z,65.98
2023-10-12T18:21:09.476Z,66.39
2023-10-12T18:23:41.339Z,65.91
2023-10-12T18:26:11.865Z,66.43
2023-10-12T18:28:40.185Z,66.14
2023-10-12T18:31:11.231Z,66.02
2023-10-12T18:33:41.076Z,66.59
2023-10-12T18:36:11.524Z,65.98
2023-10-12T18:38:41.689Z,66.72
2023-10-12T18:41:11.510Z,66.51
2023-10-12T18:43:40.700Z,66.57
2023-10-12T18:46:09.307Z,67.17
2023-10-12T18:48:37.864Z,67.20
2023-10-12T18:51:08.661Z,66.90
2023-10-12T18:53:42.146Z,66.96
2023-10-12T18:56:12.022Z,67.38
2023-10-12T18:58:40.909Z,67.13
2023-10-12T19:01:11.169Z,67.47
2023-10-12T19:03:39.893Z,67.77
2023-10-12T19:06:11.451Z,67.62
2023-10-12T19:08:39.854Z,67.40
2023-10-12T19:11:09.141Z,67.72
2023-10-12T19:13:41.412Z,67.71
2023-10-12T19:16:17.674Z,68.10
2023-10-12T19:18:46.646Z,67.89
2023-10-12T19:21:15.448Z,67.58
2023-10-12T19:23:45.278Z,67.76
2023-10-12T19:26:13.788Z,67.91
2023-10-12T19:28:42.691Z,67.87
2023-10-12T19:31:14.117Z,67.61
2023-10-12T19:33:43.460Z,67.67
2023-10-12T19:36:12.698Z,67.71
2023-10-12T19:38:41.620Z,68.01
2023-10-12T19:41:10.618Z,67.64
2023-10-12T19:43:39.287Z,67.96
2023-10-12T19:46:12.107Z,67.76
2023-10-12T19:48:41.026Z,67.76
2023-10-12T19:51:17.980Z,67.79
2023-10-12T19:53:47.624Z,67.66
2023-10-12T19:56:17.340Z,67.97
2023-10-12T19:58:50.181Z,68.33
2023-10-12T20:01:22.346Z,68.15
2023-10-12T20:03:51.079Z,68.11
2023-10-12T20:06:21.248Z,67.90
2023-10-12T20:08:50.475Z,68.10
2023-10-12T20:11:19.374Z,68.21
2023-10-12T20:13:50.710Z,67.79
2023-10-12T20:16:21.881Z,68.47
2023-10-12T20:18:50.857Z,68.31
2023-10-12T20:21:19.187Z,68.65
2023-10-12T20:23:47.334Z,68.31
2023-10-12T20:26:15.401Z,68.78
2023-10-12T20:28:43.618Z,69.13
2023-10-12T20:31:12.267Z,68.88
2023-10-12T20:33:41.061Z,69.49
2023-10-12T20:36:09.315Z,69.57
2023-10-12T20:38:37.385Z,69.57
2023-10-12T20:41:08.412Z,69.20
2023-10-12T20:43:36.764Z,69.57
2023-10-12T20:46:11.450Z,69.64
2023-10-12T20:48:40.535Z,70.28
2023-10-12T20:51:09.176Z,69.95
2023-10-12T20:53:37.815Z,70.58
2023-10-12T20:56:28.327Z,70.42
2023-10-12T20:59:31.968Z,71.18
2023-10-12T21:02:03.226Z,70.77
2023-10-12T21:04:34.398Z,71.48
2023-10-12T21:07:05.746Z,71.51
2023-10-12T21:09:34.386Z,71.99
2023-10-12T21:12:15.573Z,71.68
2023-10-12T21:14:44.090Z,72.01
2023-10-12T21:17:21.313Z,72.17
2023-10-12T21:19:55.896Z,72.54
2023-10-12T21:22:29.238Z,73.17
2023-10-12T21:24:58.470Z,73.54
2023-10-12T21:27:38.745Z,73.78
2023-10-12T21:30:07.897Z,73.59
2023-10-12T21:32:41.266Z,73.80
2023-10-12T21:35:10.745Z,74.44
2023-10-12T21:37:39.661Z,74.30
2023-10-12T21:40:27.662Z,74.52
2023-10-12T21:42:57.995Z,74.81
2023-10-12T21:45:26.577Z,75.66
2023-10-12T21:47:54.985Z,75.72
2023-10-12T21:50:26.292Z,76.28
2023-10-12T21:52:54.353Z,76.67
2023-10-12T21:55:22.595Z,77.45
2023-10-12T21:57:50.898Z,77.29
2023-10-12T22:00:33.900Z,77.56
2023-10-12T22:03:02.393Z,77.99
2023-10-12T22:05:30.772Z,78.72
2023-10-12T22:07:58.962Z,78.48
2023-10-12T22:10:30.674Z,79.14
2023-10-12T22:13:07.474Z,79.69
2023-10-12T22:15:54.873Z,80.53
2023-10-12T22:18:23.424Z,82.06
2023-10-12T22:20:57.778Z,83.26
2023-10-12T22:23:26.086Z,85.44
2023-10-12T22:25:54.382Z,87.32
2023-10-12T22:28:22.738Z,89.51
2023-10-12T22:30:54.571Z,92.02
2023-10-12T22:33:22.915Z,93.99
2023-10-12T22:36:01.093Z,95.51
2023-10-12T22:38:29.916Z,97.48
2023-10-12T22:41:01.989Z,99.15
2023-10-12T22:43:30.886Z,99.93
2023-10-12T22:46:01.953Z,100.00
2023-10-12T22:48:30.490Z,100.00
2023-10-12T22:50:58.566Z,100.00
2023-10-12T22:53:26.893Z,100.00
2023-10-12T22:55:55.002Z,100.00
2023-10-12T22:58:23.138Z,100.00
2023-10-12T23:00:51.839Z,100.00
2023-10-12T23:03:19.986Z,100.00
2023-10-12T23:05:48.046Z,100.00
2023-10-12T23:08:16.640Z,100.00
2023-10-12T23:10:48.241Z,100.00
2023-10-12T23:13:16.651Z,100.00
2023-10-12T23:15:45.469Z,100.00
2023-10-12T23:18:20.106Z,100.00
2023-10-12T23:20:48.906Z,100.00
2023-10-12T23:23:19.412Z,100.00
2023-10-12T23:25:51.007Z,100.00
2023-10-12T23:28:19.189Z,100.00
2023-10-12T23:30:54.929Z,100.00
2023-10-12T23:33:38.424Z,100.00
2023-10-12T23:36:07.461Z,100.00
2023-10-12T23:38:40.677Z,100.00
2023-10-12T23:41:14.648Z,100.00
2023-10-12T23:43:56.681Z,100.00
2023-10-12T23:46:25.090Z,100.00
2023-10-12T23:48:59.123Z,100.00
2023-10-12T23:51:31.307Z,100.00
2023-10-12T23:54:00.188Z,100.00
2023-10-12T23:56:31.140Z,100.00
2023-10-12T23:58:59.737Z,100.00
